Time;durP1;ratioP1;P1;durP2;ratioP2;P2;SDS_P1;SDS_P2;PMS_P1;PMS_P2;Temp;Humidity;BMP_temperature;BMP_pressure;BME280_temperature;BME280_humidity;BME280_pressure;Samples;Min_cycle;Max_cycle;Signal;HPM_P1;HPM_P2
2021/07/03 00:00:49;;;;;;;8.63;7.80;;;;;;;18.75;64.94;100435.75;5057966;28;20389;-87
2021/07/03 00:03:15;;;;;;;9.77;8.53;;;;;;;18.71;64.70;100434.72;5048448;28;20401;-87
2021/07/03 00:05:40;;;;;;;9.73;7.63;;;;;;;18.69;64.97;100434.22;5060172;28;20752;-87
2021/07/03 00:08:05;;;;;;;7.90;7.30;;;;;;;18.69;64.69;100431.47;5058393;28;20413;-87
2021/07/03 00:10:32;;;;;;;7.77;6.97;;;;;;;18.70;64.68;100436.69;5066606;28;20932;-87
2021/07/03 00:12:57;;;;;;;8.93;7.90;;;;;;;18.67;64.55;100438.06;5062326;28;20438;-87
2021/07/03 00:15:23;;;;;;;8.20;7.30;;;;;;;18.66;64.82;100427.41;5057845;28;20436;-87
2021/07/03 00:17:51;;;;;;;8.40;7.47;;;;;;;18.67;65.06;100426.31;5062730;28;20502;-87
2021/07/03 00:20:17;;;;;;;8.90;8.00;;;;;;;18.64;64.92;100435.94;5066809;28;20384;-87
2021/07/03 00:22:42;;;;;;;8.70;7.90;;;;;;;18.67;65.06;100437.28;5061297;28;20754;-87
2021/07/03 00:25:08;;;;;;;10.00;8.10;;;;;;;18.66;65.03;100435.63;5058316;28;20391;-87
2021/07/03 00:27:33;;;;;;;8.98;8.07;;;;;;;18.64;64.89;100435.09;5059251;28;20859;-87
2021/07/03 00:29:59;;;;;;;8.32;7.60;;;;;;;18.60;65.69;100434.09;5059426;28;20415;-87
2021/07/03 00:32:24;;;;;;;8.40;7.50;;;;;;;18.61;65.73;100438.44;5057586;28;20433;-87
2021/07/03 00:34:50;;;;;;;10.90;7.57;;;;;;;18.63;65.68;100436.25;5064334;28;20761;-88
2021/07/03 00:37:16;;;;;;;8.27;7.60;;;;;;;18.62;65.81;100429.09;5057631;28;20475;-87
2021/07/03 00:39:41;;;;;;;8.95;8.07;;;;;;;18.60;65.94;100429.44;5061893;28;20481;-87
2021/07/03 00:42:07;;;;;;;8.73;7.50;;;;;;;18.58;65.90;100441.78;5061780;28;20827;-87
2021/07/03 00:44:36;;;;;;;11.50;7.27;;;;;;;18.54;65.92;100440.78;5053890;28;20435;-87
2021/07/03 00:47:06;;;;;;;8.95;7.35;;;;;;;18.50;66.12;100437.00;5056985;28;20431;-87
2021/07/03 00:49:33;;;;;;;8.57;7.60;;;;;;;18.46;66.30;100435.91;5062207;28;20383;-87
2021/07/03 00:51:59;;;;;;;9.02;8.18;;;;;;;18.42;66.26;100429.38;5056542;28;20897;-87
2021/07/03 00:54:27;;;;;;;9.63;8.13;;;;;;;18.39;66.44;100430.81;5061041;28;20492;-87
2021/07/03 00:57:03;;;;;;;10.27;8.70;;;;;;;18.43;66.72;100431.03;5054304;28;20431;-87
2021/07/03 00:59:41;;;;;;;8.45;7.75;;;;;;;18.35;66.86;100428.94;5068572;28;20875;-87
2021/07/03 01:02:09;;;;;;;12.55;7.60;;;;;;;18.28;67.13;100428.50;5061371;28;20402;-87
2021/07/03 01:04:35;;;;;;;8.93;8.10;;;;;;;18.27;66.70;100433.19;5049300;28;20449;-87
2021/07/03 01:07:02;;;;;;;7.78;7.07;;;;;;;18.25;66.45;100429.09;5057081;28;20421;-87
2021/07/03 01:09:28;;;;;;;7.07;6.47;;;;;;;18.21;66.43;100428.06;5069897;28;20428;-87
2021/07/03 01:11:53;;;;;;;9.50;7.70;;;;;;;18.19;66.47;100431.09;5051254;28;20436;-87
2021/07/03 01:14:19;;;;;;;9.75;7.68;;;;;;;18.19;66.59;100433.00;5064804;28;20469;-87
2021/07/03 01:16:46;;;;;;;10.10;9.15;;;;;;;18.14;66.73;100436.66;5060645;28;20427;-87
2021/07/03 01:19:12;;;;;;;12.48;10.70;;;;;;;18.15;66.90;100443.75;5056170;28;20415;-87
2021/07/03 01:21:38;;;;;;;13.23;11.03;;;;;;;18.11;66.85;100440.78;5058400;28;20403;-87
2021/07/03 01:24:04;;;;;;;82.47;48.40;;;;;;;18.11;67.26;100448.22;5057288;28;20420;-87
2021/07/03 01:26:43;;;;;;;27.88;18.85;;;;;;;18.08;67.40;100444.13;5054646;28;20405;-87
2021/07/03 01:29:08;;;;;;;28.40;19.55;;;;;;;18.07;67.89;100448.00;5054250;28;20413;-87
2021/07/03 01:31:33;;;;;;;24.45;17.52;;;;;;;18.06;67.96;100451.84;5058854;28;20391;-87
2021/07/03 01:33:59;;;;;;;28.87;18.27;;;;;;;18.05;67.83;100444.72;5055992;28;20402;-87
2021/07/03 01:36:24;;;;;;;20.00;14.90;;;;;;;18.01;67.96;100442.88;5054431;28;20417;-87
2021/07/03 01:38:49;;;;;;;15.97;12.60;;;;;;;18.00;68.07;100452.19;5059940;28;20443;-87
2021/07/03 01:41:15;;;;;;;13.67;11.57;;;;;;;18.02;67.82;100439.00;5065058;28;20392;-87
2021/07/03 01:43:40;;;;;;;13.40;10.63;;;;;;;18.04;68.20;100439.53;5058103;28;20392;-87
2021/07/03 01:46:05;;;;;;;13.50;10.57;;;;;;;18.01;68.07;100445.63;5056593;28;20408;-87
2021/07/03 01:48:32;;;;;;;15.33;10.37;;;;;;;17.95;67.96;100444.03;5063046;28;20518;-87
2021/07/03 01:50:58;;;;;;;10.63;8.45;;;;;;;17.93;67.55;100440.78;5055963;28;20413;-87
2021/07/03 01:53:26;;;;;;;9.68;8.65;;;;;;;17.79;67.71;100448.06;5049238;28;20782;-87
2021/07/03 01:55:52;;;;;;;14.40;10.75;;;;;;;17.74;67.87;100445.41;5064149;28;20430;-87
2021/07/03 01:58:20;;;;;;;12.27;8.37;;;;;;;17.69;67.90;100435.31;5060372;28;20484;-87
2021/07/03 02:00:50;;;;;;;12.68;7.63;;;;;;;17.69;67.65;100437.22;5052346;28;20420;-87
2021/07/03 02:03:16;;;;;;;10.60;7.60;;;;;;;17.69;67.23;100431.75;5058593;28;20454;-87
2021/07/03 02:05:42;;;;;;;8.40;7.65;;;;;;;17.68;67.14;100435.63;5050935;28;20446;-87
2021/07/03 02:08:08;;;;;;;10.40;8.13;;;;;;;17.63;67.44;100434.56;5062667;28;20399;-87
2021/07/03 02:10:33;;;;;;;10.05;7.75;;;;;;;17.58;67.37;100431.06;5047599;28;20798;-87
2021/07/03 02:12:59;;;;;;;10.40;8.53;;;;;;;17.53;67.79;100426.44;5058542;28;20440;-87
2021/07/03 02:15:24;;;;;;;8.32;7.63;;;;;;;17.42;68.08;100424.09;5054971;28;20419;-87
2021/07/03 02:17:49;;;;;;;10.87;7.23;;;;;;;17.36;67.90;100420.59;5063079;28;20412;-87
2021/07/03 02:20:15;;;;;;;8.00;6.90;;;;;;;17.38;67.77;100418.38;5055708;28;20916;-87
2021/07/03 02:22:40;;;;;;;13.55;6.90;;;;;;;17.38;67.22;100420.31;5062073;28;20487;-87
2021/07/03 02:25:07;;;;;;;9.80;6.57;;;;;;;17.35;67.07;100410.75;5059552;28;20899;-88
2021/07/03 02:27:32;;;;;;;7.97;7.20;;;;;;;17.31;67.18;100415.16;5052524;28;20427;-88
2021/07/03 02:29:59;;;;;;;9.97;7.50;;;;;;;17.23;67.72;100415.78;5063077;28;20487;-87
2021/07/03 02:32:25;;;;;;;11.75;7.95;;;;;;;17.09;67.96;100423.88;5060371;28;20392;-87
2021/07/03 02:34:50;;;;;;;8.43;7.43;;;;;;;17.17;67.93;100427.09;5054617;28;20749;-87
2021/07/03 02:37:15;;;;;;;9.90;7.73;;;;;;;17.16;67.81;100429.00;5061109;28;20417;-87
2021/07/03 02:39:41;;;;;;;10.45;8.23;;;;;;;17.11;67.99;100426.31;5050811;28;20464;-87
2021/07/03 02:42:06;;;;;;;10.83;7.80;;;;;;;17.14;67.94;100417.53;5063963;28;20405;-87
2021/07/03 02:44:32;;;;;;;9.90;9.00;;;;;;;17.12;68.37;100417.81;5064505;28;20930;-88
2021/07/03 02:46:57;;;;;;;11.27;8.77;;;;;;;17.11;68.45;100415.38;5063912;28;20474;-87
2021/07/03 02:49:22;;;;;;;9.80;8.57;;;;;;;17.10;68.22;100414.56;5063738;28;20882;-88
2021/07/03 02:51:48;;;;;;;9.02;8.15;;;;;;;17.07;68.38;100414.31;5064420;28;20436;-87
2021/07/03 02:54:13;;;;;;;8.73;7.80;;;;;;;17.11;68.12;100412.63;5058191;28;20421;-87
2021/07/03 02:56:38;;;;;;;10.70;8.43;;;;;;;17.11;67.81;100418.13;5067301;28;20417;-87
2021/07/03 02:59:04;;;;;;;8.77;7.77;;;;;;;17.06;67.66;100420.88;5044485;28;20398;-87
2021/07/03 03:01:29;;;;;;;9.67;8.43;;;;;;;16.95;68.13;100413.88;5059824;28;20392;-87
2021/07/03 03:03:54;;;;;;;8.63;7.82;;;;;;;16.96;67.91;100418.25;5066253;28;20401;-87
2021/07/03 03:06:20;;;;;;;9.93;8.13;;;;;;;17.00;67.51;100413.81;5058348;28;20412;-87
2021/07/03 03:08:45;;;;;;;7.87;7.23;;;;;;;16.99;67.21;100407.53;5060443;28;20912;-87
2021/07/03 03:11:10;;;;;;;8.97;7.60;;;;;;;17.01;67.23;100410.81;5060645;28;20740;-88
2021/07/03 03:13:36;;;;;;;9.30;8.13;;;;;;;16.99;67.60;100407.53;5059963;28;20391;-87
2021/07/03 03:16:01;;;;;;;9.33;7.53;;;;;;;16.94;68.03;100410.34;5066006;28;20421;-87
2021/07/03 03:18:26;;;;;;;8.87;8.00;;;;;;;16.94;67.97;100415.00;5056249;28;20655;-87
2021/07/03 03:20:51;;;;;;;9.10;8.17;;;;;;;16.90;67.84;100412.00;5066256;28;20398;-87
2021/07/03 03:23:17;;;;;;;9.57;8.37;;;;;;;16.88;67.83;100405.19;5053203;28;20405;-87
2021/07/03 03:25:42;;;;;;;9.63;7.27;;;;;;;16.90;67.84;100401.06;5053746;28;20413;-87
2021/07/03 03:28:07;;;;;;;8.50;7.57;;;;;;;16.94;67.50;100407.59;5058407;28;20405;-87
2021/07/03 03:30:32;;;;;;;8.80;7.53;;;;;;;16.94;67.80;100415.00;5067463;28;20391;-87
2021/07/03 03:32:58;;;;;;;9.90;7.88;;;;;;;16.90;67.88;100411.19;5057561;28;20409;-87
2021/07/03 03:35:23;;;;;;;10.33;7.90;;;;;;;16.93;67.78;100416.06;5058149;28;20904;-87
2021/07/03 03:37:48;;;;;;;11.80;8.23;;;;;;;16.91;68.11;100418.31;5064401;28;20411;-87
2021/07/03 03:40:14;;;;;;;13.15;8.27;;;;;;;16.84;67.80;100410.41;5057525;28;20400;-87
2021/07/03 03:42:39;;;;;;;9.63;7.97;;;;;;;16.87;67.41;100414.50;5061961;28;20397;-87
2021/07/03 03:45:06;;;;;;;10.93;7.73;;;;;;;16.83;67.48;100406.03;5059996;28;20850;-87
2021/07/03 03:47:32;;;;;;;9.98;7.72;;;;;;;16.78;67.51;100414.31;5059683;28;20409;-87
2021/07/03 03:49:57;;;;;;;11.43;8.77;;;;;;;16.77;67.91;100417.31;5065548;28;20392;-87
2021/07/03 03:52:22;;;;;;;8.40;7.60;;;;;;;16.79;67.81;100424.16;5057026;28;20396;-87
2021/07/03 03:54:48;;;;;;;9.57;7.83;;;;;;;16.79;67.78;100415.94;5065476;28;20394;-87
2021/07/03 03:57:29;;;;;;;9.63;7.50;;;;;;;16.78;67.83;100425.25;5055293;28;20424;-87
2021/07/03 03:59:56;;;;;;;11.65;7.82;;;;;;;16.71;68.29;100416.56;5062983;28;20404;-87
2021/07/03 04:02:21;;;;;;;9.82;8.27;;;;;;;16.69;68.49;100423.44;5065086;28;20534;-87
2021/07/03 04:04:47;;;;;;;9.20;7.73;;;;;;;16.69;68.54;100426.16;5056546;28;20957;-87
2021/07/03 04:07:12;;;;;;;11.05;7.50;;;;;;;16.73;68.23;100417.06;5052273;28;20409;-87
2021/07/03 04:09:38;;;;;;;16.70;8.23;;;;;;;16.77;67.97;100418.16;5052087;28;20406;-87
2021/07/03 04:12:03;;;;;;;8.17;7.33;;;;;;;16.75;67.72;100423.09;5062026;28;20407;-87
2021/07/03 04:14:29;;;;;;;8.30;7.40;;;;;;;16.70;67.52;100412.19;5058770;28;20406;-87
2021/07/03 04:16:55;;;;;;;9.27;7.67;;;;;;;16.67;67.57;100420.97;5064094;28;20423;-87
2021/07/03 04:19:20;;;;;;;11.10;7.70;;;;;;;16.66;67.87;100421.25;5061984;28;20479;-87
2021/07/03 04:21:46;;;;;;;13.03;7.10;;;;;;;16.66;67.99;100419.34;5056424;28;20403;-87
2021/07/03 04:24:11;;;;;;;13.87;7.37;;;;;;;16.67;67.68;100425.59;5056994;28;20791;-87
2021/07/03 04:26:36;;;;;;;12.73;8.43;;;;;;;16.68;68.24;100419.88;5058595;28;20397;-87
2021/07/03 04:29:02;;;;;;;8.30;7.53;;;;;;;16.67;68.38;100418.22;5063873;28;20517;-87
2021/07/03 04:31:27;;;;;;;10.70;8.35;;;;;;;16.64;68.63;100415.25;5063133;28;20805;-87
2021/07/03 04:33:53;;;;;;;12.10;7.50;;;;;;;16.65;68.58;100414.97;5054107;28;20405;-87
2021/07/03 04:36:18;;;;;;;12.80;8.80;;;;;;;16.66;68.84;100424.00;5049303;28;20767;-88
2021/07/03 04:38:43;;;;;;;10.30;7.77;;;;;;;16.72;68.56;100418.19;5058314;28;20910;-88
2021/07/03 04:41:08;;;;;;;12.97;8.03;;;;;;;16.75;68.43;100423.09;5061348;28;20474;-88
2021/07/03 04:43:34;;;;;;;11.10;7.43;;;;;;;16.75;68.01;100434.03;5054939;28;20413;-88
2021/07/03 04:45:59;;;;;;;12.77;8.30;;;;;;;16.75;68.53;100433.22;5061544;28;20490;-88
2021/07/03 04:48:24;;;;;;;10.60;8.23;;;;;;;16.72;68.58;100437.34;5051667;28;20401;-88
2021/07/03 04:50:50;;;;;;;14.30;8.77;;;;;;;16.72;68.62;100431.88;5061965;28;20791;-87
2021/07/03 04:53:15;;;;;;;8.83;7.90;;;;;;;16.76;69.17;100434.88;5064188;28;20390;-88
2021/07/03 04:55:40;;;;;;;12.68;8.35;;;;;;;16.80;69.01;100428.50;5032378;28;20411;-87
2021/07/03 04:58:05;;;;;;;12.50;8.13;;;;;;;16.84;68.56;100426.03;5056542;28;20458;-88
2021/07/03 05:00:31;;;;;;;9.23;7.63;;;;;;;16.89;68.21;100421.31;5061192;28;20413;-87
2021/07/03 05:02:56;;;;;;;8.35;7.55;;;;;;;16.94;68.40;100418.53;5056632;28;20401;-88
2021/07/03 05:05:21;;;;;;;10.93;7.57;;;;;;;16.98;68.63;100413.31;5060158;28;20472;-88
2021/07/03 05:07:47;;;;;;;12.00;8.43;;;;;;;17.00;68.88;100417.38;5063818;28;20425;-88
2021/07/03 05:10:12;;;;;;;8.53;7.60;;;;;;;17.02;69.03;100406.97;5064665;28;20480;-88
2021/07/03 05:12:38;;;;;;;9.57;7.87;;;;;;;17.07;69.15;100409.66;5052135;28;20949;-88
2021/07/03 05:15:05;;;;;;;8.47;7.57;;;;;;;17.11;69.38;100410.72;5063735;28;20394;-87
2021/07/03 05:17:30;;;;;;;9.50;7.88;;;;;;;17.16;69.37;100406.31;5054472;28;20427;-88
2021/07/03 05:19:57;;;;;;;10.38;8.00;;;;;;;17.21;69.67;100408.97;5059450;28;22340;-88
2021/07/03 05:22:23;;;;;;;9.73;7.83;;;;;;;17.25;69.87;100410.03;5056017;28;20399;-88
2021/07/03 05:24:48;;;;;;;11.17;7.93;;;;;;;17.30;70.12;100407.22;5051948;28;20402;-88
2021/07/03 05:27:13;;;;;;;9.17;8.13;;;;;;;17.32;70.10;100407.78;5057811;28;20899;-88
2021/07/03 05:29:38;;;;;;;9.80;8.10;;;;;;;17.31;70.34;100398.72;5047941;28;20493;-87
2021/07/03 05:32:04;;;;;;;9.30;8.07;;;;;;;17.38;70.26;100398.38;5043906;28;20412;-88
2021/07/03 05:34:30;;;;;;;9.45;8.45;;;;;;;17.42;70.27;100404.94;5049895;28;20772;-89
2021/07/03 05:36:56;;;;;;;10.13;7.60;;;;;;;17.50;70.22;100410.56;5050035;28;20413;-92
2021/07/03 05:39:21;;;;;;;9.43;8.18;;;;;;;17.58;70.19;100409.94;5054696;28;20409;-89
2021/07/03 05:41:46;;;;;;;10.53;9.40;;;;;;;17.63;69.95;100412.63;5052211;28;20877;-87
2021/07/03 05:44:12;;;;;;;9.13;8.27;;;;;;;17.72;69.82;100409.22;5048892;28;20408;-87
2021/07/03 05:46:38;;;;;;;9.70;8.80;;;;;;;17.81;70.14;100408.31;5063771;28;20400;-88
2021/07/03 05:49:03;;;;;;;9.25;8.55;;;;;;;17.88;70.22;100405.22;5058348;28;20404;-89
2021/07/03 05:51:28;;;;;;;10.00;9.10;;;;;;;17.93;70.19;100400.47;5056035;28;20765;-87
2021/07/03 05:53:55;;;;;;;9.88;8.93;;;;;;;17.99;70.12;100410.25;5061353;28;20405;-87
2021/07/03 05:56:21;;;;;;;9.70;8.80;;;;;;;18.07;69.92;100395.06;5062034;28;20916;-86
2021/07/03 05:58:46;;;;;;;10.32;9.35;;;;;;;18.07;69.57;100398.63;5063910;28;20447;-87
2021/07/03 06:01:12;;;;;;;10.50;9.60;;;;;;;18.18;69.54;100399.28;5052050;28;20436;-87
2021/07/03 06:03:37;;;;;;;11.07;9.93;;;;;;;18.30;69.10;100401.59;5050905;28;20492;-87
2021/07/03 06:06:02;;;;;;;10.53;9.40;;;;;;;18.39;68.94;100403.38;5059954;28;20417;-87
2021/07/03 06:08:28;;;;;;;10.45;9.00;;;;;;;18.49;68.83;100405.97;5062144;28;20403;-87
2021/07/03 06:10:53;;;;;;;11.83;9.57;;;;;;;18.53;67.84;100404.28;5063886;28;20405;-87
2021/07/03 06:13:18;;;;;;;11.33;9.43;;;;;;;18.61;67.18;100400.84;5067797;28;20407;-88
2021/07/03 06:15:44;;;;;;;10.10;9.20;;;;;;;18.71;67.10;100405.34;5061477;28;20416;-87
2021/07/03 06:18:09;;;;;;;10.10;9.10;;;;;;;18.81;66.90;100404.34;5060579;28;20487;-87
2021/07/03 06:20:34;;;;;;;10.33;9.27;;;;;;;18.89;66.95;100409.19;5063858;28;20455;-87
2021/07/03 06:23:00;;;;;;;11.60;9.97;;;;;;;19.00;67.25;100411.44;5051629;28;20472;-89
2021/07/03 06:25:25;;;;;;;12.23;9.97;;;;;;;19.09;67.04;100420.63;5053629;28;20831;-87
2021/07/03 06:27:50;;;;;;;10.00;9.00;;;;;;;19.11;65.55;100412.88;5049428;28;20844;-87
2021/07/03 06:30:16;;;;;;;14.17;9.80;;;;;;;19.13;65.04;100409.84;5055253;28;20422;-86
2021/07/03 06:32:42;;;;;;;10.57;9.43;;;;;;;19.16;64.12;100398.25;5067678;28;20391;-88
2021/07/03 06:35:08;;;;;;;10.73;9.63;;;;;;;19.19;63.80;100397.66;5057123;28;20406;-87
2021/07/03 06:37:34;;;;;;;11.00;9.35;;;;;;;19.22;63.61;100396.22;5058782;28;20421;-88
2021/07/03 06:39:59;;;;;;;11.13;9.97;;;;;;;19.31;63.46;100391.66;5061905;28;20405;-87
2021/07/03 06:42:24;;;;;;;11.77;9.75;;;;;;;19.45;63.59;100393.31;5063449;28;20413;-87
2021/07/03 06:44:51;;;;;;;13.37;9.97;;;;;;;19.54;63.19;100396.16;5054794;28;20488;-87
2021/07/03 06:47:20;;;;;;;12.55;10.23;;;;;;;19.60;63.13;100395.75;5057579;28;20422;-88
2021/07/03 06:49:45;;;;;;;11.05;9.88;;;;;;;19.68;62.64;100395.06;5052404;28;20420;-87
2021/07/03 06:52:11;;;;;;;11.17;10.07;;;;;;;19.77;62.72;100383.31;5051060;28;20415;-87
2021/07/03 06:54:38;;;;;;;11.35;10.18;;;;;;;19.82;63.33;100392.28;5058237;28;20931;-87
2021/07/03 06:57:08;;;;;;;14.88;10.23;;;;;;;19.93;63.23;100379.94;5056171;28;20413;-87
2021/07/03 06:59:34;;;;;;;13.02;9.70;;;;;;;19.99;63.13;100383.41;5057571;28;20458;-86
2021/07/03 07:01:59;;;;;;;12.57;9.73;;;;;;;20.08;63.39;100384.28;5059545;28;20885;-87
2021/07/03 07:04:25;;;;;;;10.83;9.80;;;;;;;20.19;62.94;100386.50;5054531;28;20847;-88
2021/07/03 07:06:53;;;;;;;9.40;8.60;;;;;;;20.31;62.81;100387.91;5059187;28;20743;-87
2021/07/03 07:09:18;;;;;;;9.90;8.95;;;;;;;20.37;62.60;100395.75;5052684;28;20496;-87
2021/07/03 07:11:44;;;;;;;10.95;9.32;;;;;;;20.40;62.46;100391.56;5056021;28;20412;-86
2021/07/03 07:14:10;;;;;;;10.15;9.25;;;;;;;20.47;62.69;100394.69;5058030;28;20416;-88
2021/07/03 07:16:36;;;;;;;9.90;8.93;;;;;;;20.57;62.73;100389.75;5055161;28;20413;-88
2021/07/03 07:19:01;;;;;;;9.90;8.88;;;;;;;20.69;62.96;100390.00;5062318;28;20806;-88
2021/07/03 07:21:27;;;;;;;9.93;9.03;;;;;;;20.77;62.13;100380.19;5055430;28;20422;-90
2021/07/03 07:23:52;;;;;;;10.05;9.18;;;;;;;20.88;61.92;100381.53;5057604;28;20488;-89
2021/07/03 07:26:18;;;;;;;9.17;8.27;;;;;;;20.99;61.65;100382.06;5064170;28;20413;-89
2021/07/03 07:28:43;;;;;;;11.35;8.27;;;;;;;21.13;61.53;100377.31;5060229;28;20476;-89
2021/07/03 07:31:09;;;;;;;9.23;8.50;;;;;;;21.24;61.88;100377.88;5060889;28;20406;-89
2021/07/03 07:33:34;;;;;;;9.73;8.85;;;;;;;21.30;61.62;100371.09;5054072;28;20759;-89
2021/07/03 07:35:59;;;;;;;8.90;8.10;;;;;;;21.34;60.84;100372.06;5059061;28;20401;-87
2021/07/03 07:38:25;;;;;;;9.13;8.40;;;;;;;21.44;60.58;100369.03;5052832;28;20431;-87
2021/07/03 07:40:51;;;;;;;9.30;8.40;;;;;;;21.44;60.12;100378.09;5050150;28;20419;-85
2021/07/03 07:43:16;;;;;;;9.60;8.10;;;;;;;21.48;60.69;100359.78;5058534;28;20450;-86
2021/07/03 07:45:42;;;;;;;9.17;8.27;;;;;;;21.59;61.27;100358.38;5050891;28;20467;-85
2021/07/03 07:48:07;;;;;;;8.43;7.73;;;;;;;21.66;61.00;100361.47;5067100;28;20400;-85
2021/07/03 07:50:32;;;;;;;8.07;7.30;;;;;;;21.78;60.72;100362.78;5058931;28;20439;-86
2021/07/03 07:52:57;;;;;;;8.77;7.97;;;;;;;21.95;60.57;100360.09;5060421;28;20899;-85
2021/07/03 07:55:23;;;;;;;8.83;8.07;;;;;;;21.99;60.73;100358.31;5051658;28;20410;-84
2021/07/03 07:57:48;;;;;;;8.37;7.63;;;;;;;22.08;60.15;100361.88;5068532;28;20875;-85
2021/07/03 08:00:16;;;;;;;8.07;7.23;;;;;;;22.15;60.14;100351.19;5059104;28;20400;-86
2021/07/03 08:02:42;;;;;;;8.38;7.65;;;;;;;22.19;59.91;100355.75;5061965;28;20479;-87
2021/07/03 08:05:08;;;;;;;8.88;8.05;;;;;;;22.22;59.67;100357.84;5052734;28;20472;-87
2021/07/03 08:07:36;;;;;;;7.70;7.10;;;;;;;22.30;58.59;100349.88;5060041;28;20400;-86
2021/07/03 08:10:01;;;;;;;7.82;7.03;;;;;;;22.41;58.74;100354.75;5055667;28;20408;-86
2021/07/03 08:12:26;;;;;;;7.73;6.63;;;;;;;22.58;58.64;100345.63;5058908;28;20397;-87
2021/07/03 08:14:52;;;;;;;7.93;7.07;;;;;;;22.72;57.73;100349.84;5057814;28;20392;-86
2021/07/03 08:17:17;;;;;;;7.78;7.18;;;;;;;22.92;57.56;100350.31;5057601;28;20953;-86
2021/07/03 08:19:42;;;;;;;7.93;7.13;;;;;;;23.04;55.07;100355.97;5058402;28;20408;-87
2021/07/03 08:22:08;;;;;;;8.03;7.33;;;;;;;23.11;54.65;100346.03;5066094;28;20767;-86
2021/07/03 08:24:33;;;;;;;8.73;7.10;;;;;;;23.24;55.97;100347.75;5051721;28;20454;-86
2021/07/03 08:26:59;;;;;;;7.67;6.90;;;;;;;23.28;55.38;100356.19;5049755;28;20744;-86
2021/07/03 08:29:24;;;;;;;11.52;7.80;;;;;;;23.19;56.64;100347.09;5061863;28;20408;-87
2021/07/03 08:31:51;;;;;;;8.90;8.10;;;;;;;23.36;56.99;100347.03;5060845;28;20479;-86
2021/07/03 08:34:17;;;;;;;9.02;8.00;;;;;;;23.46;55.61;100345.88;5058946;28;20920;-87
2021/07/03 08:36:42;;;;;;;19.08;8.27;;;;;;;23.61;55.98;100348.09;5054412;28;20401;-87
2021/07/03 08:39:07;;;;;;;9.23;8.23;;;;;;;23.77;55.10;100338.88;5053713;28;20405;-89
2021/07/03 08:41:35;;;;;;;8.60;7.83;;;;;;;23.91;55.85;100330.28;5064836;28;20876;-87
2021/07/03 08:44:00;;;;;;;9.60;7.50;;;;;;;24.00;56.39;100333.84;5062653;28;20424;-86
2021/07/03 08:46:25;;;;;;;8.97;8.07;;;;;;;24.07;55.37;100333.28;5057558;28;20404;-86
2021/07/03 08:48:55;;;;;;;8.13;7.32;;;;;;;24.20;53.41;100329.47;5058007;28;20490;-87
2021/07/03 08:51:24;;;;;;;7.75;7.13;;;;;;;24.40;54.48;100331.41;5057432;28;20391;-86
2021/07/03 08:53:51;;;;;;;7.75;6.93;;;;;;;24.76;53.21;100320.41;5057178;28;20395;-86
2021/07/03 08:56:16;;;;;;;8.60;7.17;;;;;;;25.32;52.10;100315.22;5056890;28;20827;-86
2021/07/03 08:58:41;;;;;;;8.18;7.15;;;;;;;25.89;49.29;100315.06;5055214;28;20398;-84
2021/07/03 09:01:07;;;;;;;7.90;7.10;;;;;;;26.65;48.54;100317.69;5053136;28;20781;-88
2021/07/03 09:03:32;;;;;;;8.63;6.60;;;;;;;27.44;45.78;100310.25;5046042;28;20916;-91
2021/07/03 09:06:00;;;;;;;8.50;6.63;;;;;;;28.35;43.17;100310.72;5044251;28;20425;-90
2021/07/03 09:08:27;;;;;;;8.95;6.68;;;;;;;29.09;41.38;100311.31;5047396;28;20420;-89
2021/07/03 09:11:01;;;;;;;7.30;6.60;;;;;;;29.62;40.69;100317.78;5046667;28;20474;-94
2021/07/03 09:13:28;;;;;;;7.55;6.22;;;;;;;30.06;38.90;100307.66;5052471;28;20416;-91
2021/07/03 09:15:53;;;;;;;6.50;5.80;;;;;;;30.57;38.38;100318.28;5049813;28;20460;-91
2021/07/03 09:18:18;;;;;;;7.07;6.20;;;;;;;31.15;37.85;100307.31;5050919;28;20456;-91
2021/07/03 09:20:51;;;;;;;7.17;5.63;;;;;;;31.51;35.88;100311.22;5051672;28;20390;-93
2021/07/03 09:23:22;;;;;;;5.85;5.55;;;;;;;31.71;34.57;100301.34;5049862;28;20441;-88
2021/07/03 09:25:48;;;;;;;7.00;6.40;;;;;;;31.86;34.47;100306.63;5050647;28;20915;-89
2021/07/03 09:31:35;;;;;;;7.57;6.63;;;;;;;32.20;34.24;100303.63;5047311;28;20922;-86
2021/07/03 09:34:01;;;;;;;6.20;5.80;;;;;;;32.42;33.65;100302.50;5049783;28;20405;-87
2021/07/03 09:36:28;;;;;;;5.90;5.43;;;;;;;32.74;33.28;100305.41;5046789;28;20770;-88
2021/07/03 09:38:59;;;;;;;5.95;5.55;;;;;;;33.22;33.42;100295.47;5049607;28;20421;-88
2021/07/03 09:41:30;;;;;;;9.45;5.97;;;;;;;33.64;33.17;100293.84;5048736;28;20416;-89
2021/07/03 09:44:01;;;;;;;5.93;5.07;;;;;;;34.05;31.41;100286.50;5054548;28;20401;-89
2021/07/03 09:46:33;;;;;;;6.97;5.38;;;;;;;34.42;31.73;100286.72;5052594;28;21053;-89
2021/07/03 09:49:10;;;;;;;4.17;3.90;;;;;;;34.87;30.76;100293.34;5054091;28;20446;-88
2021/07/03 09:51:37;;;;;;;4.57;4.27;;;;;;;34.83;27.81;100297.38;5055501;28;20515;-87
2021/07/03 09:54:07;;;;;;;4.90;4.15;;;;;;;34.07;28.58;100288.88;5045645;28;20413;-89
2021/07/03 09:56:33;;;;;;;4.72;3.97;;;;;;;33.51;29.87;100301.88;5052904;28;20417;-90
2021/07/03 09:58:58;;;;;;;4.15;3.85;;;;;;;33.83;29.47;100291.38;5053434;28;20741;-88
2021/07/03 10:01:24;;;;;;;4.27;3.87;;;;;;;34.50;27.80;100293.13;5053667;28;20394;-88
2021/07/03 10:03:50;;;;;;;3.90;3.70;;;;;;;34.81;28.25;100283.69;5054061;28;20408;-88
2021/07/03 10:06:40;;;;;;;4.10;3.80;;;;;;;35.15;28.72;100285.88;5053825;28;20393;-93
2021/07/03 10:09:11;;;;;;;4.45;4.22;;;;;;;35.44;27.56;100284.41;5052697;28;20405;-91
2021/07/03 10:11:47;;;;;;;4.20;3.90;;;;;;;35.80;27.83;100282.03;5051576;28;20409;-91
2021/07/03 10:14:13;;;;;;;3.67;3.58;;;;;;;36.22;25.43;100275.13;5047201;28;20421;-89
2021/07/03 10:16:39;;;;;;;3.80;3.60;;;;;;;36.28;25.96;100274.22;5053100;28;20432;-90
2021/07/03 10:19:16;;;;;;;4.25;3.85;;;;;;;36.52;25.41;100268.66;5054916;28;20749;-89
2021/07/03 10:21:43;;;;;;;3.97;3.78;;;;;;;36.71;26.40;100268.00;5054786;28;20394;-90
2021/07/03 10:24:16;;;;;;;4.68;4.45;;;;;;;36.79;26.68;100275.91;5062881;28;20441;-89
2021/07/03 10:26:41;;;;;;;4.90;4.60;;;;;;;36.92;26.26;100268.44;5054703;28;20441;-89
2021/07/03 10:29:40;;;;;;;4.57;4.20;;;;;;;36.81;25.51;100267.84;5053306;28;20935;-88
2021/07/03 10:32:06;;;;;;;5.32;4.60;;;;;;;36.70;25.10;100261.56;5029267;28;20920;-87
2021/07/03 10:34:33;;;;;;;6.10;4.40;;;;;;;36.63;24.03;100255.19;5051178;28;20424;-87
2021/07/03 10:37:02;;;;;;;4.07;3.72;;;;;;;36.76;26.43;100253.38;5044744;28;20429;-87
2021/07/03 10:39:32;;;;;;;4.03;3.72;;;;;;;36.76;25.97;100247.75;5051188;28;20753;-88
2021/07/03 10:41:58;;;;;;;4.30;4.00;;;;;;;36.78;23.85;100248.94;5048857;28;20401;-85
2021/07/03 10:44:23;;;;;;;4.10;3.72;;;;;;;36.81;25.24;100253.72;5053033;28;20420;-87
2021/07/03 10:46:51;;;;;;;5.63;3.67;;;;;;;37.14;24.04;100257.63;5048867;28;21014;-86
2021/07/03 10:49:30;;;;;;;3.83;3.70;;;;;;;37.18;24.29;100258.34;5052741;28;20467;-85
2021/07/03 10:51:56;;;;;;;4.13;3.80;;;;;;;37.17;25.11;100264.44;5053861;28;20393;-87
2021/07/03 10:54:28;;;;;;;4.27;3.80;;;;;;;37.41;24.22;100257.56;5052692;28;20815;-87
2021/07/03 10:57:05;;;;;;;4.10;3.80;;;;;;;37.63;24.22;100257.97;5049623;28;20887;-87
2021/07/03 10:59:37;;;;;;;3.63;3.42;;;;;;;37.90;22.84;100262.28;5053758;28;20401;-87
2021/07/03 11:02:17;;;;;;;3.63;3.42;;;;;;;37.87;22.97;100256.69;5053993;28;20397;-87
2021/07/03 11:04:46;;;;;;;3.70;3.40;;;;;;;37.81;22.98;100250.72;5052936;28;20522;-88
2021/07/03 11:07:14;;;;;;;4.25;3.85;;;;;;;37.73;22.24;100252.13;5050364;28;20421;-87
2021/07/03 11:09:39;;;;;;;3.30;3.10;;;;;;;37.53;22.20;100244.84;5052570;28;20435;-86
2021/07/03 11:12:14;;;;;;;3.45;3.25;;;;;;;37.56;20.75;100236.28;5052373;28;21208;-88
2021/07/03 11:14:47;;;;;;;3.22;3.10;;;;;;;37.61;21.26;100235.00;5053245;28;20401;-89
2021/07/03 11:17:13;;;;;;;3.03;2.72;;;;;;;37.78;21.22;100236.66;5053657;28;20768;-88
2021/07/03 11:19:43;;;;;;;3.43;3.23;;;;;;;38.04;22.65;100232.13;5053980;28;20389;-87
2021/07/03 11:22:10;;;;;;;3.30;3.10;;;;;;;38.26;21.21;100210.59;5052368;28;20409;-87